createdAt,value
2022-08-27T00:03:27.500Z,72.36
2022-08-27T00:08:31.466Z,72.35
2022-08-27T00:13:35.037Z,72.32
2022-08-27T00:18:40.355Z,72.26
2022-08-27T00:23:44.400Z,72.38
2022-08-27T00:28:48.554Z,72.43
2022-08-27T00:33:52.686Z,72.88
2022-08-27T00:38:55.995Z,72.67
2022-08-27T00:44:02.179Z,72.67
2022-08-27T00:49:22.982Z,72.73
2022-08-27T00:54:28.244Z,72.68
2022-08-27T00:59:33.187Z,73.00
2022-08-27T01:04:40.511Z,73.29
2022-08-27T01:09:47.306Z,73.49
2022-08-27T01:14:53.493Z,73.69
2022-08-27T01:20:02.458Z,73.58
2022-08-27T01:25:13.945Z,73.61
2022-08-27T01:30:21.870Z,73.63
2022-08-27T01:35:25.722Z,74.07
2022-08-27T01:40:29.028Z,73.92
2022-08-27T01:45:46.721Z,74.11
2022-08-27T01:50:50.774Z,74.11
2022-08-27T01:55:56.435Z,74.12
2022-08-27T02:01:07.394Z,74.27
2022-08-27T02:06:12.537Z,74.56
2022-08-27T02:11:15.771Z,74.71
2022-08-27T02:16:19.050Z,74.65
2022-08-27T02:21:22.404Z,74.78
2022-08-27T02:26:25.859Z,74.92
2022-08-27T02:31:29.149Z,74.82
2022-08-27T02:36:32.472Z,75.00
2022-08-27T02:41:36.867Z,75.36
2022-08-27T02:46:41.960Z,75.64
2022-08-27T02:51:45.743Z,75.65
2022-08-27T02:56:49.683Z,75.65
2022-08-27T03:01:53.159Z,75.61
2022-08-27T03:06:56.904Z,75.94
2022-08-27T03:12:00.732Z,75.89
2022-08-27T03:17:22.744Z,75.99
2022-08-27T03:22:26.498Z,75.79
2022-08-27T03:27:29.957Z,75.90
2022-08-27T03:32:33.326Z,75.99
2022-08-27T03:37:36.873Z,76.04
2022-08-27T03:42:41.968Z,76.10
2022-08-27T03:47:45.436Z,76.11
2022-08-27T03:52:49.642Z,76.22
2022-08-27T03:57:52.863Z,76.29
2022-08-27T04:02:57.083Z,76.40
2022-08-27T04:08:01.024Z,76.45
2022-08-27T04:13:04.320Z,76.56
2022-08-27T04:18:07.590Z,76.46
2022-08-27T04:23:10.982Z,76.25
2022-08-27T04:28:16.638Z,76.43
2022-08-27T04:33:19.918Z,76.29
2022-08-27T04:38:23.125Z,76.32
2022-08-27T04:43:28.627Z,76.51
2022-08-27T04:48:32.310Z,76.43
2022-08-27T04:53:36.443Z,76.50
2022-08-27T04:58:39.959Z,76.33
2022-08-27T05:03:43.882Z,75.95
2022-08-27T05:08:50.443Z,75.66
2022-08-27T05:13:53.882Z,75.54
2022-08-27T05:19:00.130Z,75.00
2022-08-27T05:24:06.779Z,74.54
2022-08-27T05:29:11.595Z,74.06
2022-08-27T05:34:22.049Z,73.66
2022-08-27T05:39:27.951Z,73.65
2022-08-27T05:44:41.129Z,73.59
2022-08-27T05:49:45.853Z,73.58
2022-08-27T05:54:49.115Z,73.51
2022-08-27T06:00:15.655Z,73.35
2022-08-27T06:05:19.380Z,72.56
2022-08-27T06:10:22.844Z,72.75
2022-08-27T06:15:26.248Z,72.31
2022-08-27T06:20:29.470Z,71.82
2022-08-27T06:25:32.970Z,71.38
2022-08-27T06:30:36.598Z,71.21
2022-08-27T06:35:40.062Z,71.03
2022-08-27T06:40:43.417Z,70.88
2022-08-27T06:45:47.244Z,70.90
2022-08-27T06:50:50.451Z,70.58
2022-08-27T06:55:53.909Z,69.96
2022-08-27T07:00:57.581Z,70.04
2022-08-27T07:06:07.870Z,69.42
2022-08-27T07:11:13.649Z,69.46
2022-08-27T07:16:23.381Z,69.34
2022-08-27T07:21:28.809Z,68.97
2022-08-27T07:26:37.006Z,68.28
2022-08-27T07:31:40.418Z,68.00
2022-08-27T07:36:45.643Z,67.97
2022-08-27T07:42:07.692Z,67.64
2022-08-27T07:47:11.000Z,67.16
2022-08-27T07:52:16.468Z,66.72
2022-08-27T07:57:19.713Z,65.93
2022-08-27T08:02:23.273Z,65.32
2022-08-27T08:07:26.603Z,63.99
2022-08-27T08:12:29.814Z,63.42
2022-08-27T08:17:35.607Z,63.62
2022-08-27T08:22:40.010Z,62.79
2022-08-27T08:27:44.350Z,61.69
2022-08-27T08:32:47.577Z,60.92
2022-08-27T08:37:50.971Z,60.43
2022-08-27T08:42:57.017Z,60.53
2022-08-27T08:48:14.699Z,59.14
2022-08-27T08:53:47.605Z,58.01
2022-08-27T08:59:06.783Z,58.19
2022-08-27T09:04:12.902Z,57.51
2022-08-27T09:09:48.427Z,57.01
2022-08-27T09:15:12.350Z,56.38
2022-08-27T09:20:25.758Z,55.63
2022-08-27T09:25:43.900Z,55.39
2022-08-27T09:30:47.213Z,55.28
2022-08-27T09:35:52.509Z,54.62
2022-08-27T09:41:02.845Z,52.80
2022-08-27T09:46:21.655Z,52.44
2022-08-27T09:51:30.109Z,50.71
2022-08-27T09:56:41.442Z,50.29
2022-08-27T10:02:03.012Z,50.42
2022-08-27T10:07:47.482Z,49.42
2022-08-27T10:13:01.979Z,49.74
2022-08-27T10:18:53.107Z,47.99
2022-08-27T10:24:23.895Z,47.43
2022-08-27T10:29:46.978Z,49.74
2022-08-27T10:34:52.714Z,47.90
2022-08-27T10:40:08.635Z,45.77
2022-08-27T10:45:44.410Z,47.03
2022-08-27T10:51:12.919Z,47.46
2022-08-27T10:56:44.720Z,45.19
2022-08-27T11:02:02.884Z,46.75
2022-08-27T11:07:22.506Z,44.67
2022-08-27T11:12:37.387Z,44.01
2022-08-27T11:17:53.804Z,41.75
2022-08-27T11:23:12.479Z,43.05
2022-08-27T11:28:16.902Z,45.00
2022-08-27T11:33:46.311Z,45.35
2022-08-27T11:39:02.080Z,41.10
2022-08-27T11:44:05.863Z,40.68
2022-08-27T11:49:09.510Z,40.63
2022-08-27T11:54:44.746Z,40.71
2022-08-27T11:59:48.065Z,41.56
2022-08-27T12:04:51.484Z,40.24
2022-08-27T12:09:58.116Z,38.88
2022-08-27T12:15:07.102Z,42.31
2022-08-27T12:20:32.016Z,38.36
2022-08-27T12:25:35.736Z,38.31
2022-08-27T12:30:52.463Z,37.88
2022-08-27T12:35:59.695Z,36.91
2022-08-27T12:41:09.191Z,34.58
2022-08-27T12:46:19.235Z,36.58
2022-08-27T12:51:32.521Z,36.96
2022-08-27T12:56:59.488Z,37.40
2022-08-27T13:02:38.548Z,41.38
2022-08-27T13:07:45.451Z,40.87
2022-08-27T13:13:00.735Z,37.01
2022-08-27T13:18:07.867Z,34.26
2022-08-27T13:23:24.248Z,34.28
2022-08-27T13:28:30.732Z,33.59
2022-08-27T13:33:36.828Z,32.62
2022-08-27T13:38:50.031Z,31.29
2022-08-27T13:43:59.006Z,30.23
2022-08-27T13:49:02.937Z,29.44
2022-08-27T13:54:13.157Z,30.56
2022-08-27T13:59:19.713Z,31.14
2022-08-27T14:05:03.012Z,28.11
2022-08-27T14:10:28.985Z,29.35
2022-08-27T14:15:48.253Z,26.85
2022-08-27T14:20:52.780Z,29.13
2022-08-27T14:26:01.895Z,28.53
2022-08-27T14:31:05.509Z,28.15
2022-08-27T14:36:10.388Z,27.95
2022-08-27T14:41:14.557Z,27.08
2022-08-27T14:46:25.726Z,26.47
2022-08-27T14:51:32.929Z,27.26
2022-08-27T14:56:36.229Z,28.32
2022-08-27T15:01:39.929Z,26.50
2022-08-27T15:06:43.005Z,24.88
2022-08-27T15:11:49.425Z,26.17
2022-08-27T15:16:53.403Z,26.30
2022-08-27T15:22:21.823Z,26.36
2022-08-27T15:27:32.148Z,25.78
2022-08-27T15:32:48.655Z,28.27
2022-08-27T15:37:52.099Z,27.84
2022-08-27T15:43:06.616Z,28.17
2022-08-27T15:48:11.031Z,28.39
2022-08-27T15:53:15.151Z,29.67
2022-08-27T15:58:18.243Z,29.45
2022-08-27T16:03:21.559Z,29.43
2022-08-27T16:08:33.890Z,31.18
2022-08-27T16:13:41.710Z,33.14
2022-08-27T16:18:44.842Z,34.56
2022-08-27T16:23:48.888Z,37.40
2022-08-27T16:28:52.005Z,39.26
2022-08-27T16:33:55.136Z,41.59
2022-08-27T16:38:58.187Z,42.32
2022-08-27T16:44:01.305Z,39.01
2022-08-27T16:49:22.995Z,39.17
2022-08-27T16:54:27.576Z,40.97
2022-08-27T16:59:30.709Z,40.78
2022-08-27T17:04:38.106Z,41.59
2022-08-27T17:09:47.404Z,42.64
2022-08-27T17:14:52.247Z,42.48
2022-08-27T17:19:55.272Z,43.49
2022-08-27T17:24:58.465Z,44.71
2022-08-27T17:30:01.641Z,45.75
2022-08-27T17:35:07.548Z,45.49
2022-08-27T17:40:12.537Z,46.31
2022-08-27T17:45:17.548Z,46.87
2022-08-27T17:50:20.553Z,47.44
2022-08-27T17:55:23.704Z,47.74
2022-08-27T18:00:28.143Z,47.93
2022-08-27T18:05:31.277Z,48.15
2022-08-27T18:10:36.948Z,48.85
2022-08-27T18:15:42.738Z,50.19
2022-08-27T18:20:45.935Z,51.42
2022-08-27T18:25:49.246Z,52.40
2022-08-27T18:30:52.445Z,53.05
2022-08-27T18:35:55.580Z,53.54
2022-08-27T18:40:59.036Z,54.17
2022-08-27T18:46:05.426Z,54.18
2022-08-27T18:51:11.860Z,54.04
2022-08-27T18:56:19.062Z,54.35
2022-08-27T19:01:27.016Z,54.47
2022-08-27T19:06:30.438Z,55.96
2022-08-27T19:11:33.675Z,57.03
2022-08-27T19:16:46.616Z,58.24
2022-08-27T19:21:51.791Z,59.08
2022-08-27T19:26:55.369Z,59.12
2022-08-27T19:31:58.567Z,59.17
2022-08-27T19:37:04.243Z,58.90
2022-08-27T19:42:08.217Z,59.51
2022-08-27T19:47:15.951Z,60.88
2022-08-27T19:52:23.463Z,60.74
2022-08-27T19:57:26.698Z,61.03
2022-08-27T20:02:29.906Z,62.35
2022-08-27T20:07:35.079Z,62.53
2022-08-27T20:12:38.989Z,62.72
2022-08-27T20:17:42.223Z,63.40
2022-08-27T20:22:46.755Z,63.27
2022-08-27T20:27:51.848Z,63.09
2022-08-27T20:32:55.954Z,63.76
2022-08-27T20:37:58.973Z,63.90
2022-08-27T20:43:02.759Z,64.07
2022-08-27T20:48:10.383Z,63.60
2022-08-27T20:53:13.714Z,63.85
2022-08-27T20:58:35.759Z,63.59
2022-08-27T21:03:38.864Z,63.03
2022-08-27T21:08:42.280Z,63.25
2022-08-27T21:13:55.579Z,62.90
2022-08-27T21:18:59.451Z,63.42
2022-08-27T21:24:02.801Z,63.66
2022-08-27T21:29:06.106Z,63.87
2022-08-27T21:34:10.746Z,64.26
2022-08-27T21:39:13.789Z,64.40
2022-08-27T21:44:17.414Z,64.25
2022-08-27T21:49:20.553Z,64.04
2022-08-27T21:54:26.150Z,64.35
2022-08-27T21:59:43.108Z,64.33
2022-08-27T22:04:46.727Z,64.90
2022-08-27T22:09:50.048Z,65.29
2022-08-27T22:14:53.190Z,65.26
2022-08-27T22:19:56.267Z,65.72
2022-08-27T22:24:59.385Z,66.18
2022-08-27T22:30:02.657Z,66.25
2022-08-27T22:35:06.352Z,66.04
2022-08-27T22:40:19.873Z,65.71
2022-08-27T22:45:24.630Z,66.18
2022-08-27T22:50:27.684Z,67.80
2022-08-27T22:55:30.760Z,69.25
2022-08-27T23:00:38.274Z,69.89
2022-08-27T23:05:42.006Z,70.17
2022-08-27T23:10:45.477Z,70.85
2022-08-27T23:15:48.536Z,71.25
2022-08-27T23:20:51.658Z,71.28
2022-08-27T23:26:13.440Z,71.32
2022-08-27T23:31:16.619Z,71.55
2022-08-27T23:36:21.214Z,72.19
2022-08-27T23:41:26.621Z,72.44
2022-08-27T23:46:30.696Z,72.15
2022-08-27T23:51:33.864Z,71.96
2022-08-27T23:56:37.284Z,71.68
